createdAt,value
2024-05-09T00:00:58.397Z,9.41
2024-05-09T00:02:05.326Z,9.36
2024-05-09T00:03:12.659Z,9.55
2024-05-09T00:04:19.502Z,9.25
2024-05-09T00:05:26.518Z,9.31
2024-05-09T00:06:33.385Z,9.86
2024-05-09T00:07:40.217Z,9.70
2024-05-09T00:08:46.973Z,9.96
2024-05-09T00:09:53.777Z,9.40
2024-05-09T00:11:00.749Z,9.52
2024-05-09T00:12:08.420Z,9.92
2024-05-09T00:13:15.508Z,9.72
2024-05-09T00:14:22.458Z,9.42
2024-05-09T00:15:29.286Z,9.90
2024-05-09T00:16:36.101Z,10.10
2024-05-09T00:17:43.228Z,9.78
2024-05-09T00:18:50.238Z,9.11
2024-05-09T00:19:57.023Z,9.52
2024-05-09T00:21:04.084Z,9.89
2024-05-09T00:22:10.997Z,9.35
2024-05-09T00:23:17.891Z,9.02
2024-05-09T00:24:24.656Z,9.56
2024-05-09T00:25:31.431Z,9.59
2024-05-09T00:26:38.353Z,10.44
2024-05-09T00:27:45.232Z,10.48
2024-05-09T00:28:52.012Z,10.46
2024-05-09T00:29:58.732Z,9.27
2024-05-09T00:31:05.620Z,9.50
2024-05-09T00:32:12.528Z,9.30
2024-05-09T00:33:19.659Z,9.96
2024-05-09T00:34:26.805Z,9.68
2024-05-09T00:35:33.910Z,9.17
2024-05-09T00:36:40.817Z,9.09
2024-05-09T00:37:47.672Z,9.10
2024-05-09T00:38:54.389Z,9.10
2024-05-09T00:40:01.149Z,9.01
2024-05-09T00:41:07.988Z,9.14
2024-05-09T00:42:15.039Z,9.05
2024-05-09T00:43:21.823Z,9.18
2024-05-09T00:44:28.612Z,9.10
2024-05-09T00:45:35.318Z,9.43
2024-05-09T00:46:42.173Z,9.63
2024-05-09T00:47:49.614Z,9.65
2024-05-09T00:48:56.779Z,9.20
2024-05-09T00:50:05.522Z,9.24
2024-05-09T00:51:14.573Z,9.47
2024-05-09T00:52:21.536Z,9.19
2024-05-09T00:53:28.311Z,9.00
2024-05-09T00:54:35.076Z,9.16
2024-05-09T00:55:41.990Z,9.35
2024-05-09T00:56:48.899Z,9.62
2024-05-09T00:57:55.803Z,9.22
2024-05-09T00:59:02.594Z,9.01
2024-05-09T01:00:18.454Z,9.22
2024-05-09T01:01:21.117Z,9.30
2024-05-09T01:02:28.053Z,9.13
2024-05-09T01:03:35.090Z,9.87
2024-05-09T01:04:42.104Z,9.42
2024-05-09T01:05:48.995Z,9.56
2024-05-09T01:06:55.777Z,8.97
2024-05-09T01:08:02.812Z,8.92
2024-05-09T01:09:09.783Z,9.36
2024-05-09T01:10:21.291Z,8.82
2024-05-09T01:11:28.386Z,8.89
2024-05-09T01:12:35.458Z,8.93
2024-05-09T01:13:42.364Z,8.98
2024-05-09T01:14:49.219Z,8.64
2024-05-09T01:15:56.153Z,8.45
2024-05-09T01:17:03.080Z,8.99
2024-05-09T01:18:10.875Z,9.32
2024-05-09T01:19:18.669Z,8.96
2024-05-09T01:20:36.856Z,9.10
2024-05-09T01:21:37.346Z,8.97
2024-05-09T01:22:44.051Z,8.91
2024-05-09T01:23:50.932Z,8.93
2024-05-09T01:24:57.844Z,9.02
2024-05-09T01:26:04.788Z,8.68
2024-05-09T01:27:11.490Z,9.29
2024-05-09T01:28:18.298Z,9.19
2024-05-09T01:29:25.212Z,9.02
2024-05-09T01:30:35.501Z,8.66
2024-05-09T01:31:43.815Z,9.34
2024-05-09T01:32:50.843Z,8.87
2024-05-09T01:33:57.879Z,9.00
2024-05-09T01:35:04.857Z,8.81
2024-05-09T01:36:11.605Z,8.77
2024-05-09T01:37:18.430Z,8.84
2024-05-09T01:38:25.373Z,8.60
2024-05-09T01:39:32.210Z,8.44
2024-05-09T01:40:40.313Z,8.73
2024-05-09T01:41:47.323Z,8.47
2024-05-09T01:42:54.158Z,8.57
2024-05-09T01:44:01.084Z,8.88
2024-05-09T01:45:08.046Z,8.77
2024-05-09T01:46:14.802Z,8.39
2024-05-09T01:47:21.713Z,8.34
2024-05-09T01:48:28.718Z,8.75
2024-05-09T01:49:35.686Z,9.05
2024-05-09T01:50:43.374Z,9.02
2024-05-09T01:51:50.465Z,8.61
2024-05-09T01:52:57.333Z,8.97
2024-05-09T01:54:04.135Z,9.06
2024-05-09T01:55:10.966Z,8.48
2024-05-09T01:56:17.786Z,8.92
2024-05-09T01:57:24.481Z,9.17
2024-05-09T01:58:31.330Z,9.09
2024-05-09T01:59:38.184Z,9.08
2024-05-09T02:00:45.083Z,8.60
